Aromas, California
Current Conditions -  °F | °C
As of 5:53 AM on Monday 24 Nov 2014 (Local Time) from KWVI Reporting Station
Clear Clear  
Wind Chill:   Ceiling: Unl
Heat Index:   Visibility: 10mi
Dew Point:   Wind: 3mph
Humidity: 86%   Direction: 280°W
Pressure: 30.33"   Gusts: NA
Location:  36.88°N, 121.64°W
Report Text: KWVI 241353Z AUTO 28003KT 10SM CLR 06/04 A3033 RMK AO2 SLP271 T00610039
Loading
Personal Weather Stations






























Interactive Weather Map New forecast layout! Learn more

10-Day Weather Forecast

Advertisements
Track Severe Weather on mobile